Time;durP1;ratioP1;P1;durP2;ratioP2;P2;SDS_P1;SDS_P2;PMS_P1;PMS_P2;Temp;Humidity;BMP_temperature;BMP_pressure;BME280_temperature;BME280_humidity;BME280_pressure;Samples;Min_cycle;Max_cycle;Signal;HPM_P1;HPM_P2
2022/01/04 00:01:13;;;;;;;18.77;7.30;;;;;;;-142.75;100.00;76688.41;5011136;28;20475;-67
2022/01/04 00:03:40;;;;;;;13.98;6.97;;;;;;;-142.75;100.00;76688.41;5011556;28;20297;-66
2022/01/04 00:06:06;;;;;;;21.00;8.15;;;;;;;-142.75;100.00;76688.41;5011875;28;20030;-66
2022/01/04 00:08:31;;;;;;;22.45;8.93;;;;;;;-142.75;100.00;76688.41;5012121;28;20026;-66
2022/01/04 00:11:07;;;;;;;16.13;6.55;;;;;;;-142.75;100.00;76688.41;5010759;28;20060;-65
2022/01/04 00:13:32;;;;;;;19.85;7.25;;;;;;;-142.75;100.00;76682.50;5011660;28;20208;-66
2022/01/04 00:15:57;;;;;;;15.98;7.13;;;;;;;-142.75;100.00;76680.53;5011596;28;20324;-66
2022/01/04 00:18:24;;;;;;;15.90;7.45;;;;;;;-142.75;100.00;76664.78;5011176;28;20022;-66
2022/01/04 00:20:50;;;;;;;13.63;7.30;;;;;;;-142.75;100.00;76664.78;5010933;28;20077;-66
2022/01/04 00:23:16;;;;;;;;;;;;;;;-142.75;100.00;76664.78;5011651;28;20030;-66
2022/01/04 00:25:41;;;;;;;14.10;7.13;;;;;;;-142.75;100.00;76664.78;5009721;28;19940;-67
2022/01/04 00:28:07;;;;;;;18.60;7.82;;;;;;;-142.75;100.00;76656.91;5011328;28;20049;-66
2022/01/04 00:30:35;;;;;;;22.25;8.27;;;;;;;-142.75;100.00;76656.91;5010485;28;20032;-66
2022/01/04 00:33:00;;;;;;;15.90;7.97;;;;;;;-142.75;100.00;76660.84;5009969;28;20019;-66
2022/01/04 00:35:25;;;;;;;16.37;7.53;;;;;;;-142.75;100.00;76649.03;5011025;28;20092;-66
2022/01/04 00:37:51;;;;;;;15.55;7.50;;;;;;;-142.75;100.00;76654.94;5011988;28;20370;-66
2022/01/04 00:40:16;;;;;;;19.88;7.82;;;;;;;-142.75;100.00;76649.03;5009324;28;20083;-67
2022/01/04 00:42:41;;;;;;;14.10;7.70;;;;;;;-142.75;100.00;76647.06;5009410;28;20076;-66
2022/01/04 00:45:07;;;;;;;13.67;7.83;;;;;;;-142.75;100.00;76652.97;5010982;28;20075;-66
2022/01/04 00:50:37;;;;;;;13.73;7.20;;;;;;;-142.75;100.00;76641.16;4949659;29;20127;-66
2022/01/04 00:53:04;;;;;;;15.20;7.47;;;;;;;-142.75;100.00;76643.13;4949954;29;20019;-66
2022/01/04 00:55:29;;;;;;;14.93;8.05;;;;;;;-142.75;100.00;76635.25;4978813;28;20037;-66
2022/01/04 00:57:55;;;;;;;12.90;7.10;;;;;;;-142.75;100.00;76631.31;5009471;28;20091;-65
2022/01/04 01:00:21;;;;;;;12.75;7.60;;;;;;;-142.75;100.00;76629.34;5009886;28;20029;-64
2022/01/04 01:02:47;;;;;;;;;;;;;;;-142.75;100.00;76625.41;5011223;28;20085;-66
2022/01/04 01:05:14;;;;;;;11.90;7.53;;;;;;;-142.75;100.00;76613.59;5009483;28;19914;-66
2022/01/04 01:07:41;;;;;;;13.93;7.82;;;;;;;-142.75;100.00;76617.53;5009876;28;20465;-66
2022/01/04 01:12:41;;;;;;;15.60;8.60;;;;;;;-142.75;100.00;76621.47;5018550;28;19920;-66
2022/01/04 01:15:08;;;;;;;16.38;7.88;;;;;;;-142.75;100.00;76623.44;5012849;28;20029;-65
2022/01/04 01:17:34;;;;;;;14.02;7.93;;;;;;;-142.75;100.00;76621.47;5011702;28;20467;-66
2022/01/04 01:20:00;;;;;;;14.23;8.27;;;;;;;-142.75;100.00;76613.59;5027543;28;20029;-65
2022/01/04 01:22:26;;;;;;;11.00;8.10;;;;;;;-142.75;100.00;76605.72;5010373;28;20026;-66
2022/01/04 01:24:52;;;;;;;14.98;8.48;;;;;;;-142.75;100.00;76609.66;5010575;28;20026;-64
2022/01/04 01:27:17;;;;;;;;;;;;;;;-142.75;100.00;76605.72;5021848;28;20057;-65
2022/01/04 01:29:42;;;;;;;16.33;9.43;;;;;;;-142.75;100.00;76613.59;5029136;28;20294;-65
2022/01/04 01:32:08;;;;;;;16.25;9.68;;;;;;;-142.75;100.00;76609.66;5029588;28;20025;-66
2022/01/04 01:34:34;;;;;;;15.75;9.40;;;;;;;-142.75;100.00;76599.81;5029843;28;20017;-66
2022/01/04 01:36:59;;;;;;;17.05;11.40;;;;;;;-142.75;100.00;76593.91;5029637;28;20021;-65
2022/01/04 01:39:25;;;;;;;15.32;9.57;;;;;;;-142.75;100.00;76589.97;5028150;28;20483;-65
2022/01/04 01:41:50;;;;;;;18.13;10.75;;;;;;;-142.75;100.00;76601.78;5029039;28;20039;-65
2022/01/04 01:44:16;;;;;;;16.75;10.32;;;;;;;-142.75;100.00;76597.84;5029373;28;20656;-66
2022/01/04 01:46:41;;;;;;;18.60;10.30;;;;;;;-142.75;100.00;76593.91;5029672;28;20040;-66
2022/01/04 01:49:06;;;;;;;17.50;10.82;;;;;;;-142.75;100.00;76586.03;5029126;28;20483;-65
2022/01/04 01:51:33;;;;;;;18.73;10.55;;;;;;;-142.75;100.00;76595.88;5027521;28;20096;-66
2022/01/04 01:54:00;;;;;;;16.48;11.00;;;;;;;-142.75;100.00;76586.03;5028110;28;20100;-65
2022/01/04 01:56:26;;;;;;;20.77;11.35;;;;;;;-142.75;100.00;76586.03;5029350;28;20433;-65
2022/01/04 01:58:52;;;;;;;16.45;10.98;;;;;;;-142.75;100.00;76584.06;5027549;28;20021;-64
2022/01/04 02:01:18;;;;;;;18.75;10.82;;;;;;;-142.75;100.00;76578.16;5028581;28;20029;-65
2022/01/04 02:03:43;;;;;;;17.55;11.20;;;;;;;-142.75;100.00;76580.13;5029270;28;20022;-66
2022/01/04 02:06:09;;;;;;;19.98;10.90;;;;;;;-142.75;100.00;76582.09;5029013;28;20048;-65
2022/01/04 02:08:35;;;;;;;19.23;11.75;;;;;;;-142.75;100.00;76580.13;5028252;28;20080;-66
2022/01/04 02:11:01;;;;;;;17.77;11.20;;;;;;;-142.75;100.00;76566.34;5028313;28;20029;-66
2022/01/04 02:13:28;;;;;;;16.63;10.82;;;;;;;-142.75;100.00;76570.28;5008132;28;20057;-65
2022/01/04 02:15:56;;;;;;;22.55;11.30;;;;;;;-142.75;100.00;76566.34;5009332;28;20025;-65
2022/01/04 02:18:22;;;;;;;17.30;10.85;;;;;;;-142.75;100.00;76554.53;5007982;28;20025;-65
2022/01/04 02:20:48;;;;;;;19.05;11.50;;;;;;;-142.75;100.00;76552.56;5009841;28;20041;-66
2022/01/04 02:23:13;;;;;;;19.65;11.65;;;;;;;-142.75;100.00;76546.66;5028834;28;20039;-66
2022/01/04 02:25:39;;;;;;;15.18;10.07;;;;;;;-142.75;100.00;76546.66;5028848;28;20410;-66
2022/01/04 02:28:04;;;;;;;17.00;11.20;;;;;;;-142.75;100.00;76550.59;5019631;28;20037;-65
2022/01/04 02:30:30;;;;;;;19.65;11.60;;;;;;;-142.75;100.00;76546.66;5008203;28;20014;-65
2022/01/04 02:32:56;;;;;;;19.50;10.52;;;;;;;-142.75;100.00;76548.63;5009334;28;20021;-66
2022/01/04 02:35:25;;;;;;;26.65;11.02;;;;;;;-142.75;100.00;76544.69;5009048;28;20042;-64
2022/01/04 02:37:54;;;;;;;17.67;11.23;;;;;;;-142.75;100.00;76534.84;5009869;28;20535;-66
2022/01/04 02:40:20;;;;;;;18.10;10.75;;;;;;;-142.75;100.00;76530.91;5008555;28;20022;-65
2022/01/04 02:42:45;;;;;;;16.02;10.90;;;;;;;-142.75;100.00;76534.84;5008924;28;20388;-65
2022/01/04 02:45:11;;;;;;;17.63;10.20;;;;;;;-142.75;100.00;76534.84;5008931;28;20034;-65
2022/01/04 02:47:38;;;;;;;17.65;10.82;;;;;;;-142.75;100.00;76527.00;5008705;28;20065;-65
2022/01/04 02:50:05;;;;;;;19.42;10.98;;;;;;;-142.75;100.00;76527.00;5008266;28;20041;-65
2022/01/04 02:52:32;;;;;;;21.85;11.50;;;;;;;-142.75;100.00;76530.91;5008958;28;20511;-65
2022/01/04 02:54:57;;;;;;;21.88;10.40;;;;;;;-142.75;100.00;76525.03;5019749;28;20534;-63
2022/01/04 02:57:23;;;;;;;18.40;10.30;;;;;;;-142.75;100.00;76527.00;5026875;28;20116;-64
2022/01/04 02:59:48;;;;;;;19.98;10.55;;;;;;;-142.75;100.00;76523.06;5026550;28;20025;-65
2022/01/04 03:02:13;;;;;;;24.23;10.85;;;;;;;-142.75;100.00;76519.13;5028439;28;20037;-66
2022/01/04 03:04:39;;;;;;;19.83;10.65;;;;;;;-142.75;100.00;76505.34;5026992;28;20036;-66
2022/01/04 03:07:04;;;;;;;15.10;9.32;;;;;;;-142.75;100.00;76499.44;5029019;28;20029;-65
2022/01/04 03:09:29;;;;;;;18.67;10.55;;;;;;;-142.75;100.00;76511.25;5028309;28;20033;-66
2022/01/04 03:11:56;;;;;;;16.35;9.57;;;;;;;-142.75;100.00;76493.53;5027550;28;20120;-66
2022/01/04 03:14:22;;;;;;;18.23;10.68;;;;;;;-142.75;100.00;76485.66;5009403;28;20017;-65
2022/01/04 03:16:47;;;;;;;16.33;9.35;;;;;;;-142.75;100.00;76483.69;5007580;28;20032;-66
2022/01/04 03:19:13;;;;;;;16.05;9.38;;;;;;;-142.75;100.00;76485.66;5008614;28;20076;-66
2022/01/04 03:21:43;;;;;;;19.00;10.57;;;;;;;-142.75;100.00;76491.56;5007899;28;20033;-66
2022/01/04 03:24:10;;;;;;;18.92;9.38;;;;;;;-142.75;100.00;76497.47;5008655;28;20025;-65
2022/01/04 03:26:36;;;;;;;14.88;8.93;;;;;;;-142.75;100.00;76491.56;5008207;28;20048;-65
2022/01/04 03:29:04;;;;;;;19.48;10.30;;;;;;;-142.75;100.00;76489.59;5007204;28;20029;-65
2022/01/04 03:31:29;;;;;;;18.20;10.38;;;;;;;-142.75;100.00;76483.69;5007480;28;20558;-66
2022/01/04 03:33:55;;;;;;;15.10;9.20;;;;;;;-142.75;100.00;76477.78;5008428;28;20030;-66
2022/01/04 03:36:22;;;;;;;13.85;8.85;;;;;;;-142.75;100.00;76485.66;5008531;28;20022;-65
2022/01/04 03:38:48;;;;;;;17.13;9.50;;;;;;;-142.75;100.00;76475.81;5009305;28;20084;-66
2022/01/04 03:41:16;;;;;;;14.88;8.77;;;;;;;-142.75;100.00;76462.03;5007619;28;20042;-66
2022/01/04 03:43:41;;;;;;;12.57;8.68;;;;;;;-142.75;100.00;76462.03;5008320;28;20045;-67
2022/01/04 03:46:07;;;;;;;13.80;9.20;;;;;;;-142.75;100.00;76460.06;5007012;28;20025;-66
2022/01/04 03:48:34;;;;;;;16.27;10.68;;;;;;;-142.75;100.00;76456.13;5022113;28;20511;-66
2022/01/04 03:50:59;;;;;;;13.77;9.10;;;;;;;-142.75;100.00;76458.09;5027199;28;20055;-65
2022/01/04 03:53:25;;;;;;;16.85;9.23;;;;;;;-142.75;100.00;76471.88;5020143;28;20112;-65
2022/01/04 03:55:50;;;;;;;16.42;8.77;;;;;;;-142.75;100.00;76469.91;5010086;28;20156;-67
2022/01/04 03:58:15;;;;;;;12.20;8.07;;;;;;;-142.75;100.00;76462.03;5009313;28;20100;-66
2022/01/04 04:00:40;;;;;;;16.35;8.73;;;;;;;-142.75;100.00;76456.13;5010621;28;20277;-66
2022/01/04 04:03:06;;;;;;;14.93;8.52;;;;;;;-142.75;100.00;76452.19;5017674;28;20026;-66
2022/01/04 04:05:31;;;;;;;18.02;9.32;;;;;;;-142.75;100.00;76462.03;5018157;28;20034;-66
2022/01/04 04:07:56;;;;;;;15.55;8.52;;;;;;;-142.75;100.00;76464.00;5032028;28;20060;-66
2022/01/04 04:10:21;;;;;;;13.63;8.37;;;;;;;-142.75;100.00;76467.94;5016425;28;20025;-66
2022/01/04 04:12:47;;;;;;;12.33;8.60;;;;;;;-142.75;100.00;76467.94;5010717;28;20268;-66
2022/01/04 04:15:12;;;;;;;12.75;8.10;;;;;;;-142.75;100.00;76465.97;5016828;28;20029;-66
2022/01/04 04:20:16;;;;;;;16.15;9.20;;;;;;;-142.75;100.00;76473.84;5028958;28;20048;-68
2022/01/04 04:22:41;;;;;;;18.48;10.52;;;;;;;-142.75;100.00;76471.88;5013332;28;20021;-68
2022/01/04 04:25:07;;;;;;;24.38;12.50;;;;;;;-142.75;100.00;76477.78;5031189;28;20108;-68
2022/01/04 04:27:33;;;;;;;16.73;11.45;;;;;;;-142.75;100.00;76475.81;5031149;28;20025;-68
2022/01/04 04:29:58;;;;;;;19.92;11.73;;;;;;;-142.75;100.00;76465.97;5012634;28;20583;-68
2022/01/04 04:32:24;;;;;;;20.73;12.50;;;;;;;-142.75;100.00;76460.06;5029203;28;20092;-68
2022/01/04 04:34:49;;;;;;;19.17;12.70;;;;;;;-142.75;100.00;76469.91;5013483;28;20040;-69
2022/01/04 04:37:14;;;;;;;20.27;13.70;;;;;;;-142.75;100.00;76471.88;5031332;28;20034;-68
2022/01/04 04:39:40;;;;;;;23.57;14.07;;;;;;;-142.75;100.00;76462.03;5030096;28;20271;-67
2022/01/04 04:42:05;;;;;;;24.55;14.45;;;;;;;-142.75;100.00;76464.00;5030631;28;20288;-68
2022/01/04 04:44:31;;;;;;;22.17;13.57;;;;;;;-142.75;100.00;76458.09;5030801;28;20025;-68
2022/01/04 04:46:56;;;;;;;19.98;14.32;;;;;;;-142.75;100.00;76462.03;5030539;28;20032;-68
2022/01/04 04:49:22;;;;;;;23.60;13.68;;;;;;;-142.75;100.00;76460.06;5030627;28;20022;-68
2022/01/04 04:51:47;;;;;;;19.40;13.68;;;;;;;-142.75;100.00;76460.06;5030298;28;20056;-68
2022/01/04 04:54:13;;;;;;;24.40;13.98;;;;;;;-142.75;100.00;76465.97;5030455;28;20499;-69
2022/01/04 04:56:39;;;;;;;22.73;13.63;;;;;;;-142.75;100.00;76452.19;5030484;28;20071;-69
2022/01/04 04:59:10;;;;;;;23.35;13.90;;;;;;;-142.75;100.00;76456.13;5012799;28;20032;-68
2022/01/04 05:01:37;;;;;;;23.70;13.48;;;;;;;-142.75;100.00;76458.09;5029535;28;20553;-68
2022/01/04 05:04:03;;;;;;;26.70;14.90;;;;;;;-142.75;100.00;76462.03;5030257;28;20029;-68
2022/01/04 05:06:28;;;;;;;21.10;12.68;;;;;;;-142.75;100.00;76460.06;5030142;28;20095;-68
2022/01/04 05:08:54;;;;;;;24.75;14.40;;;;;;;-142.75;100.00;76448.25;5030725;28;20033;-66
2022/01/04 05:11:19;;;;;;;19.88;13.63;;;;;;;-142.75;100.00;76446.28;5029717;28;20120;-68
2022/01/04 05:13:45;;;;;;;28.67;14.82;;;;;;;-142.75;100.00;76454.16;5030313;28;20018;-68
2022/01/04 05:16:10;;;;;;;19.85;14.32;;;;;;;-142.75;100.00;76454.16;5012426;28;20056;-69
2022/01/04 05:18:36;;;;;;;21.52;12.88;;;;;;;-142.75;100.00;76440.38;5029811;28;20025;-68
2022/01/04 05:21:01;;;;;;;23.85;15.02;;;;;;;-142.75;100.00;76446.28;5029274;28;20084;-68
2022/01/04 05:23:27;;;;;;;22.70;13.38;;;;;;;-142.75;100.00;76450.22;5030066;28;20025;-68
2022/01/04 05:25:52;;;;;;;26.60;14.60;;;;;;;-142.75;100.00;76462.03;5012126;28;20473;-66
2022/01/04 05:28:17;;;;;;;21.40;13.18;;;;;;;-142.75;100.00;76452.19;5030088;28;20025;-68
2022/01/04 05:30:43;;;;;;;22.50;14.73;;;;;;;-142.75;100.00;76452.19;5028889;28;20032;-68
2022/01/04 05:33:08;;;;;;;23.50;14.60;;;;;;;-142.75;100.00;76442.34;5029707;28;20017;-68
2022/01/04 05:35:33;;;;;;;24.38;14.45;;;;;;;-142.75;100.00;76442.34;5012142;28;20268;-69
2022/01/04 05:37:59;;;;;;;23.40;14.40;;;;;;;-142.75;100.00;76442.34;5030280;28;20028;-67
2022/01/04 05:40:24;;;;;;;25.13;14.27;;;;;;;-142.75;100.00;76450.22;5040121;28;20513;-68
2022/01/04 05:42:50;;;;;;;23.38;13.52;;;;;;;-142.75;100.00;76442.34;5029912;28;20025;-68
2022/01/04 05:45:16;;;;;;;23.75;14.27;;;;;;;-142.75;100.00;76436.44;5029589;28;20036;-68
2022/01/04 05:47:41;;;;;;;27.80;14.70;;;;;;;-142.75;100.00;76438.41;5029339;28;20047;-67
2022/01/04 05:50:07;;;;;;;23.23;13.93;;;;;;;-142.75;100.00;76448.25;5028984;28;20494;-68
2022/01/04 05:52:34;;;;;;;20.80;13.30;;;;;;;-142.75;100.00;76454.16;5029517;28;20025;-67
2022/01/04 05:54:59;;;;;;;;;;;;;;;-142.75;100.00;76452.19;5029980;28;20048;-68
2022/01/04 05:57:24;;;;;;;20.00;13.15;;;;;;;-142.75;100.00;76448.25;5029363;28;19913;-66
2022/01/04 05:59:49;;;;;;;24.02;13.93;;;;;;;-142.75;100.00;76440.38;5028594;28;20116;-68
2022/01/04 06:02:15;;;;;;;21.23;14.25;;;;;;;-142.75;100.00;76428.56;5029315;28;20064;-68
2022/01/04 06:04:40;;;;;;;23.20;13.90;;;;;;;-142.75;100.00;76420.69;5029179;28;20063;-68
2022/01/04 06:07:06;;;;;;;20.42;13.45;;;;;;;-142.75;100.00;76428.56;5011606;28;20049;-68
2022/01/04 06:09:40;;;;;;;24.63;14.27;;;;;;;-142.75;100.00;76420.69;5029501;28;20033;-67
2022/01/04 06:14:50;;;;;;;24.15;15.13;;;;;;;-142.75;100.00;76424.63;5029179;28;20064;-68
2022/01/04 06:14:58;;;;;;;23.65;14.60;;;;;;;-142.75;100.00;76426.59;5028992;28;20095;-66
2022/01/04 06:17:32;;;;;;;26.30;14.73;;;;;;;-142.75;100.00;76424.63;5028999;28;20159;-68
2022/01/04 06:19:58;;;;;;;26.95;16.00;;;;;;;-142.75;100.00;76426.59;5028034;28;20021;-67
2022/01/04 06:22:26;;;;;;;24.63;15.35;;;;;;;-142.75;100.00;76440.38;5028568;28;20546;-67
2022/01/04 06:24:52;;;;;;;27.33;15.60;;;;;;;-142.75;100.00;76436.44;5011181;28;20026;-68
2022/01/04 06:27:18;;;;;;;26.77;15.80;;;;;;;-142.75;100.00;76434.47;5011463;28;20022;-68
2022/01/04 06:29:44;;;;;;;22.33;15.18;;;;;;;-142.75;100.00;76430.53;5028046;28;20029;-68
2022/01/04 06:32:10;;;;;;;30.73;16.23;;;;;;;-142.75;100.00;76426.59;5011202;28;20025;-67
2022/01/04 06:34:37;;;;;;;24.55;15.35;;;;;;;-142.75;100.00;76414.78;5028857;28;20025;-68
2022/01/04 06:37:03;;;;;;;26.00;15.13;;;;;;;-142.75;100.00;76416.75;5028924;28;20103;-68
2022/01/04 06:39:28;;;;;;;21.15;13.90;;;;;;;-142.75;100.00;76402.97;5029000;28;20056;-68
2022/01/04 06:41:53;;;;;;;22.55;14.25;;;;;;;-142.75;100.00;76402.97;5027728;28;20030;-67
2022/01/04 06:44:19;;;;;;;26.40;13.90;;;;;;;-142.75;100.00;76389.19;5027368;28;20029;-67
2022/01/04 06:46:45;;;;;;;23.25;13.85;;;;;;;-142.75;100.00;76401.00;5028171;28;20030;-68
2022/01/04 06:49:14;;;;;;;21.17;13.43;;;;;;;-142.75;100.00;76397.06;5042975;28;20036;-68
2022/01/04 06:51:41;;;;;;;22.25;13.35;;;;;;;-142.75;100.00;76393.13;5008630;28;20362;-68
2022/01/04 06:54:08;;;;;;;22.88;13.52;;;;;;;-142.75;100.00;76397.06;5027785;28;20038;-68
2022/01/04 06:56:34;;;;;;;24.60;14.43;;;;;;;-142.75;100.00;76397.06;5028074;28;20449;-68
2022/01/04 06:58:59;;;;;;;22.25;13.07;;;;;;;-142.75;100.00;76393.13;5010690;28;20041;-68
2022/01/04 07:01:25;;;;;;;21.17;13.35;;;;;;;-142.75;100.00;76395.09;5009885;28;20041;-67
2022/01/04 07:03:50;;;;;;;21.43;12.93;;;;;;;-142.75;100.00;76391.16;5028707;28;20029;-68
2022/01/04 07:06:15;;;;;;;24.65;13.45;;;;;;;-142.75;100.00;76387.22;5011000;28;20310;-68
2022/01/04 07:08:40;;;;;;;23.50;14.00;;;;;;;-142.75;100.00;76389.19;5028932;28;20101;-68
2022/01/04 07:11:06;;;;;;;22.38;13.90;;;;;;;-142.75;100.00;76377.38;5027720;28;20028;-68
2022/01/04 07:13:31;;;;;;;27.30;14.90;;;;;;;-142.75;100.00;76373.44;5028495;28;20087;-68
2022/01/04 07:15:56;;;;;;;28.10;15.18;;;;;;;-142.75;100.00;76375.41;5028448;28;20037;-67
2022/01/04 07:18:22;;;;;;;24.37;14.90;;;;;;;-142.75;100.00;76373.44;5028225;28;20033;-69
2022/01/04 07:20:47;;;;;;;24.83;16.08;;;;;;;-142.75;100.00;76373.44;5028002;28;20032;-67
2022/01/04 07:23:13;;;;;;;22.02;14.60;;;;;;;-142.75;100.00;76373.44;5028129;28;20029;-68
2022/01/04 07:25:38;;;;;;;24.15;15.27;;;;;;;-142.75;100.00;76371.47;5028339;28;20147;-68
2022/01/04 07:28:03;;;;;;;27.45;15.82;;;;;;;-142.75;100.00;76371.47;5028188;28;20390;-66
2022/01/04 07:30:28;;;;;;;24.60;15.15;;;;;;;-142.75;100.00;76363.59;5027535;28;20087;-66
2022/01/04 07:32:54;;;;;;;24.47;14.67;;;;;;;-142.75;100.00;76359.66;5026969;28;20080;-66
2022/01/04 07:35:19;;;;;;;24.05;14.32;;;;;;;-142.75;100.00;76361.63;5030733;28;20295;-66
2022/01/04 07:37:44;;;;;;;27.63;14.77;;;;;;;-142.75;100.00;76361.63;5032324;28;20025;-66
2022/01/04 07:40:10;;;;;;;26.08;14.68;;;;;;;-142.75;100.00;76365.56;5031228;28;20399;-67
2022/01/04 07:42:36;;;;;;;24.50;15.85;;;;;;;-142.75;100.00;76371.47;5032012;28;20041;-67
2022/01/04 07:45:02;;;;;;;24.75;15.18;;;;;;;-142.75;100.00;76373.44;5030322;28;20021;-66
2022/01/04 07:47:28;;;;;;;22.98;15.20;;;;;;;-142.75;100.00;76365.56;5030913;28;20029;-66
2022/01/04 07:49:53;;;;;;;29.17;15.90;;;;;;;-142.75;100.00;76357.69;5030214;28;20551;-67
2022/01/04 07:52:18;;;;;;;30.20;14.25;;;;;;;-142.75;100.00;76363.59;5013112;28;20025;-66
2022/01/04 07:54:44;;;;;;;28.85;14.88;;;;;;;-142.75;100.00;76353.78;5030805;28;20029;-66
2022/01/04 07:57:10;;;;;;;26.67;15.30;;;;;;;-142.75;100.00;76359.66;5013053;28;20036;-66
2022/01/04 07:59:35;;;;;;;24.55;14.90;;;;;;;-142.75;100.00;76365.56;5034775;28;20549;-66
2022/01/04 08:02:00;;;;;;;27.48;14.40;;;;;;;-142.75;100.00;76365.56;5012927;28;20124;-66
2022/01/04 08:04:26;;;;;;;20.65;14.10;;;;;;;-142.75;100.00;76357.69;5031133;28;20036;-66
2022/01/04 08:06:51;;;;;;;21.83;14.60;;;;;;;-142.75;100.00;76357.69;5012903;28;20026;-66
2022/01/04 08:09:16;;;;;;;24.88;13.38;;;;;;;-142.75;100.00;76357.69;5031449;28;20029;-67
2022/01/04 08:11:42;;;;;;;22.55;12.95;;;;;;;-142.75;100.00;76359.66;5029735;28;20658;-66
2022/01/04 08:14:08;;;;;;;20.67;13.10;;;;;;;-142.75;100.00;76357.69;5030351;28;20026;-67
2022/01/04 08:16:34;;;;;;;22.10;13.70;;;;;;;-142.75;100.00;76365.56;5030460;28;20025;-67
2022/01/04 08:18:59;;;;;;;20.70;13.05;;;;;;;-142.75;100.00;76361.63;5029933;28;20404;-66
2022/01/04 08:21:24;;;;;;;21.20;13.57;;;;;;;-142.75;100.00;76359.66;5029643;28;20437;-66
2022/01/04 08:23:49;;;;;;;22.42;13.75;;;;;;;-142.75;100.00;76371.47;5030416;28;20025;-66
2022/01/04 08:26:16;;;;;;;22.90;13.93;;;;;;;-142.75;100.00;76373.44;5030169;28;20435;-67
2022/01/04 08:28:41;;;;;;;24.80;13.43;;;;;;;-142.75;100.00;76369.50;5030190;28;20017;-66
2022/01/04 08:31:07;;;;;;;18.05;12.85;;;;;;;-142.75;100.00;76377.38;5029701;28;20400;-66
2022/01/04 08:33:32;;;;;;;25.58;13.75;;;;;;;-142.75;100.00;76369.50;5030321;28;20479;-66
2022/01/04 08:35:58;;;;;;;22.83;13.27;;;;;;;-142.75;100.00;76379.34;5030799;28;20466;-66
2022/01/04 08:38:23;;;;;;;23.08;11.90;;;;;;;-142.75;100.00;76383.28;5030854;28;20102;-65
2022/01/04 08:40:48;;;;;;;16.80;9.73;;;;;;;-142.75;100.00;76393.13;5030197;28;20435;-65
2022/01/04 08:43:14;;;;;;;12.55;6.30;;;;;;;-142.75;100.00;76408.88;5030501;28;20017;-66
2022/01/04 08:45:39;;;;;;;12.57;5.57;;;;;;;-142.75;100.00;76416.75;5012138;28;20547;-66
2022/01/04 08:48:05;;;;;;;8.93;5.13;;;;;;;-142.75;100.00;76416.75;5030498;28;20034;-67
2022/01/04 08:50:31;;;;;;;10.48;5.15;;;;;;;-142.75;100.00;76408.88;5029172;28;20033;-64
2022/01/04 08:52:56;;;;;;;11.63;4.78;;;;;;;-142.75;100.00;76397.06;5030147;28;20112;-67
2022/01/04 08:55:23;;;;;;;8.10;5.13;;;;;;;-142.75;100.00;76383.28;5031358;28;20025;-67
2022/01/04 08:57:49;;;;;;;12.88;4.63;;;;;;;-142.75;100.00;76373.44;5031675;28;20063;-66
2022/01/04 09:00:15;;;;;;;9.48;3.60;;;;;;;-142.75;100.00;76373.44;5027035;28;20447;-67
2022/01/04 09:02:41;;;;;;;;;;;;;;;-142.75;100.00;76371.47;5014012;28;20502;-66
2022/01/04 09:05:07;;;;;;;9.20;3.25;;;;;;;-142.75;100.00;76371.47;5030798;28;19955;-66
2022/01/04 09:07:32;;;;;;;11.00;3.58;;;;;;;-142.75;100.00;76365.56;5033986;28;20115;-66
2022/01/04 09:09:58;;;;;;;7.55;3.92;;;;;;;-142.75;100.00;76367.53;5050002;28;20086;-67
2022/01/04 09:12:26;;;;;;;10.07;3.88;;;;;;;-142.75;100.00;76367.53;5035774;28;20416;-66
2022/01/04 09:15:05;;;;;;;10.35;3.33;;;;;;;-142.75;100.00;76367.53;5031143;28;20053;-65
2022/01/04 09:20:15;;;;;;;7.35;3.60;;;;;;;-142.75;100.00;76365.56;5050320;28;20071;-68
2022/01/04 09:22:42;;;;;;;7.03;3.60;;;;;;;-142.75;100.00;76361.63;5050173;28;20064;-68
2022/01/04 09:25:09;;;;;;;7.45;4.28;;;;;;;-142.75;100.00;76355.72;5048418;28;20049;-67
2022/01/04 09:27:36;;;;;;;9.45;4.40;;;;;;;-142.75;100.00;76347.84;5049437;28;20051;-67
2022/01/04 09:30:04;;;;;;;10.07;4.78;;;;;;;-142.75;100.00;76343.94;5048636;28;20029;-67
2022/01/04 09:32:33;;;;;;;6.60;4.30;;;;;;;-142.75;100.00;76347.84;5049393;28;20017;-67
2022/01/04 09:35:00;;;;;;;8.27;5.00;;;;;;;-142.75;100.00;76345.91;5049274;28;20115;-67
2022/01/04 09:37:25;;;;;;;8.43;5.32;;;;;;;-142.75;100.00;76338.03;5049823;28;20029;-67
2022/01/04 09:39:51;;;;;;;8.43;5.30;;;;;;;-142.75;100.00;76328.19;5030270;28;20028;-68
2022/01/04 09:42:18;;;;;;;9.32;5.90;;;;;;;-142.75;100.00;76341.97;5029579;28;20388;-68
2022/01/04 09:44:45;;;;;;;9.93;5.82;;;;;;;-142.75;100.00;76343.94;5011670;28;20479;-68
2022/01/04 09:47:10;;;;;;;10.23;5.90;;;;;;;-142.75;100.00;76334.09;5029261;28;20029;-68
2022/01/04 09:49:35;;;;;;;11.63;6.65;;;;;;;-142.75;100.00;76330.16;5028861;28;20108;-68
2022/01/04 09:52:03;;;;;;;11.23;6.95;;;;;;;-142.75;100.00;76322.28;5029829;28;20017;-67
2022/01/04 09:54:29;;;;;;;14.50;7.72;;;;;;;-142.75;100.00;76324.25;5028438;28;20022;-67
2022/01/04 09:56:55;;;;;;;12.63;7.45;;;;;;;-142.75;100.00;76330.16;5029381;28;20466;-68
2022/01/04 09:59:20;;;;;;;11.18;7.30;;;;;;;-142.75;100.00;76310.47;5030144;28;20056;-69
2022/01/04 10:01:51;;;;;;;17.38;7.55;;;;;;;-142.75;100.00;76308.50;5011810;28;20083;-67
2022/01/04 10:04:17;;;;;;;18.00;7.65;;;;;;;-142.75;100.00;76314.41;5030155;28;20033;-68
2022/01/04 10:07:06;;;;;;;16.02;8.25;;;;;;;-142.75;100.00;76312.44;5029963;28;20165;-68
2022/01/04 10:09:35;;;;;;;19.70;8.25;;;;;;;-142.75;100.00;76312.44;5029956;28;20395;-68
2022/01/04 10:12:00;;;;;;;14.15;8.30;;;;;;;-142.75;100.00;76306.53;5029051;28;20029;-67
2022/01/04 10:14:29;;;;;;;16.60;8.40;;;;;;;-142.75;100.00;76306.53;5029629;28;20037;-68
2022/01/04 10:16:57;;;;;;;14.18;6.60;;;;;;;-142.75;100.00;76308.50;5029662;28;20518;-67
2022/01/04 10:19:27;;;;;;;21.90;7.53;;;;;;;-142.75;100.00;76306.53;5060618;22;20577;-69
2022/01/04 10:22:14;;;;;;;19.30;5.82;;;;;;;-142.75;100.00;76302.59;5048774;28;20029;-67
2022/01/04 10:24:40;;;;;;;18.73;4.65;;;;;;;-142.75;100.00;76310.47;5049302;28;20761;-70
2022/01/04 10:27:25;;;;;;;18.33;4.43;;;;;;;-142.75;100.00;76302.59;5049382;28;20570;-71
2022/01/04 10:30:12;;;;;;;15.50;4.80;;;;;;;-142.75;100.00;76300.63;5048854;28;20116;-70
2022/01/04 10:32:56;;;;;;;19.33;4.20;;;;;;;-142.75;100.00;76292.75;5049425;28;20076;-70
2022/01/04 10:35:48;;;;;;;13.77;3.80;;;;;;;-142.75;100.00;76288.81;5049241;28;20025;-68
2022/01/04 10:38:16;;;;;;;23.38;4.00;;;;;;;-142.75;100.00;76284.88;5048610;28;20085;-70
2022/01/04 10:41:00;;;;;;;13.43;4.28;;;;;;;-142.75;100.00;76282.91;5030666;28;20132;-70
2022/01/04 10:43:32;;;;;;;19.15;3.78;;;;;;;-142.75;100.00;76284.88;5047402;28;20035;-70
2022/01/04 10:45:58;;;;;;;19.17;4.15;;;;;;;-142.75;100.00;76288.81;5031368;28;20036;-70
2022/01/04 10:48:27;;;;;;;16.63;3.67;;;;;;;-142.75;100.00;76288.81;5049133;28;20028;-70
2022/01/04 10:50:59;;;;;;;24.83;3.90;;;;;;;-142.75;100.00;76296.69;5048481;28;20029;-68
2022/01/04 10:53:30;;;;;;;19.23;3.65;;;;;;;-142.75;100.00;76298.66;5049201;28;20028;-70
2022/01/04 10:56:04;;;;;;;16.70;2.92;;;;;;;-142.75;100.00;76292.75;5031686;28;20427;-70
2022/01/04 10:58:34;;;;;;;21.38;3.58;;;;;;;-142.75;100.00;76294.72;5048225;28;20035;-70
2022/01/04 11:01:21;;;;;;;14.50;3.45;;;;;;;-142.75;100.00;76286.84;5048081;28;20031;-70
2022/01/04 11:03:49;;;;;;;13.65;3.13;;;;;;;-142.75;100.00;76286.84;5060168;28;20025;-71
2022/01/04 11:06:19;;;;;;;13.55;3.05;;;;;;;-142.75;100.00;76286.84;5069326;28;20037;-70
2022/01/04 11:08:45;;;;;;;16.58;3.15;;;;;;;-142.75;100.00;76296.69;5070457;28;20036;-68